createdAt,value
2019-01-31T00:03:01.810Z,4.23
2019-01-31T00:06:11.264Z,4.97
2019-01-31T00:09:00.554Z,4.63
2019-01-31T00:12:19.048Z,4.40
2019-01-31T00:15:07.105Z,3.90
2019-01-31T00:18:11.919Z,3.47
2019-01-31T00:21:26.409Z,3.87
2019-01-31T00:24:10.352Z,3.90
2019-01-31T00:27:01.853Z,4.00
2019-01-31T00:29:50.721Z,3.63
2019-01-31T00:32:55.738Z,3.90
2019-01-31T00:36:17.390Z,4.10
2019-01-31T00:39:15.464Z,3.70
2019-01-31T00:42:05.127Z,3.47
2019-01-31T00:45:04.149Z,3.57
2019-01-31T00:48:24.137Z,3.97
2019-01-31T00:51:47.879Z,3.90
2019-01-31T00:55:02.602Z,4.43
2019-01-31T00:57:56.201Z,3.77
2019-01-31T01:01:08.233Z,4.03
2019-01-31T01:04:07.227Z,4.13
2019-01-31T01:07:17.589Z,3.60
2019-01-31T01:10:37.513Z,3.10
2019-01-31T01:13:14.546Z,3.87
2019-01-31T01:16:25.612Z,3.13
2019-01-31T01:19:21.366Z,3.27
2019-01-31T01:22:01.598Z,2.80
2019-01-31T01:24:47.712Z,2.80
2019-01-31T01:27:32.762Z,3.20
2019-01-31T01:30:35.041Z,2.97
2019-01-31T01:33:46.756Z,3.57
2019-01-31T01:36:30.066Z,2.90
2019-01-31T01:39:27.013Z,3.37
2019-01-31T01:42:26.466Z,3.33
2019-01-31T01:45:26.722Z,3.60
2019-01-31T01:48:12.729Z,3.00
2019-01-31T01:51:14.382Z,3.13
2019-01-31T01:54:12.989Z,3.40
2019-01-31T01:57:17.786Z,3.83
2019-01-31T02:00:35.441Z,3.00
2019-01-31T02:03:45.849Z,3.20
2019-01-31T02:06:50.949Z,2.40
2019-01-31T02:09:53.388Z,2.20
2019-01-31T02:12:55.954Z,2.27
2019-01-31T02:16:09.305Z,3.70
2019-01-31T02:19:06.101Z,3.80
2019-01-31T02:22:12.149Z,3.30
2019-01-31T02:25:09.193Z,3.53
2019-01-31T02:28:15.430Z,4.07
2019-01-31T02:31:14.682Z,3.70
2019-01-31T02:34:34.589Z,3.60
2019-01-31T02:37:34.978Z,3.87
2019-01-31T02:40:46.760Z,3.00
2019-01-31T02:43:57.375Z,3.37
2019-01-31T02:47:21.727Z,3.70
2019-01-31T02:50:42.006Z,4.03
2019-01-31T02:54:05.881Z,4.10
2019-01-31T02:56:55.117Z,4.40
2019-01-31T03:00:08.902Z,3.93
2019-01-31T03:02:51.502Z,3.30
2019-01-31T03:06:30.701Z,3.20
2019-01-31T03:09:35.683Z,3.53
2019-01-31T03:12:59.609Z,3.70
2019-01-31T03:16:07.778Z,3.70
2019-01-31T03:18:45.360Z,3.27
2019-01-31T03:21:44.996Z,4.20
2019-01-31T03:25:05.651Z,4.00
2019-01-31T03:28:24.752Z,3.30
2019-01-31T03:31:50.749Z,3.80
2019-01-31T03:35:00.766Z,4.10
2019-01-31T03:37:47.558Z,3.30
2019-01-31T03:40:51.873Z,3.53
2019-01-31T03:43:36.940Z,3.50
2019-01-31T03:46:40.077Z,3.70
2019-01-31T03:49:58.162Z,3.50
2019-01-31T03:53:09.809Z,3.17
2019-01-31T03:56:11.630Z,2.80
2019-01-31T03:59:06.449Z,2.33
2019-01-31T04:02:17.173Z,2.70
2019-01-31T04:05:34.251Z,2.30
2019-01-31T04:08:04.966Z,3.00
2019-01-31T04:10:35.682Z,2.73
2019-01-31T04:13:06.270Z,2.40
2019-01-31T04:15:36.974Z,3.07
2019-01-31T04:18:08.757Z,2.50
2019-01-31T04:20:39.458Z,3.00
2019-01-31T04:23:10.118Z,2.57
2019-01-31T04:25:40.733Z,2.90
2019-01-31T04:28:11.384Z,3.30
2019-01-31T04:30:42.010Z,3.03
2019-01-31T04:33:12.717Z,3.33
2019-01-31T04:35:43.348Z,4.50
2019-01-31T04:38:13.984Z,3.30
2019-01-31T04:40:44.610Z,3.40
2019-01-31T04:43:17.094Z,2.57
2019-01-31T04:45:47.857Z,2.67
2019-01-31T04:48:19.577Z,3.13
2019-01-31T04:50:50.475Z,3.30
2019-01-31T04:53:21.231Z,4.00
2019-01-31T04:55:51.865Z,3.30
2019-01-31T04:58:23.881Z,4.17
2019-01-31T05:00:54.433Z,3.83
2019-01-31T05:03:26.234Z,4.80
2019-01-31T05:06:00.995Z,4.50
2019-01-31T05:08:31.739Z,4.20
2019-01-31T05:11:02.372Z,4.67
2019-01-31T05:13:33.274Z,4.60
2019-01-31T05:16:04.637Z,4.77
2019-01-31T05:18:36.569Z,4.37
2019-01-31T05:21:07.265Z,4.27
2019-01-31T05:23:37.921Z,4.83
2019-01-31T05:26:08.554Z,4.50
2019-01-31T05:28:39.295Z,4.77
2019-01-31T05:31:10.928Z,5.10
2019-01-31T05:33:41.641Z,4.43
2019-01-31T05:36:13.128Z,5.20
2019-01-31T05:38:43.873Z,4.57
2019-01-31T05:41:14.630Z,4.40
2019-01-31T05:43:45.412Z,4.13
2019-01-31T05:46:18.417Z,4.87
2019-01-31T05:48:50.425Z,4.40
2019-01-31T05:51:20.968Z,4.63
2019-01-31T05:53:51.696Z,4.70
2019-01-31T05:56:22.325Z,6.03
2019-01-31T05:58:53.054Z,4.90
2019-01-31T06:01:25.174Z,5.20
2019-01-31T06:03:55.881Z,5.70
2019-01-31T06:06:26.000Z,5.47
2019-01-31T06:08:57.730Z,5.17
2019-01-31T06:11:28.442Z,3.97
2019-01-31T06:13:59.169Z,4.43
2019-01-31T06:16:29.869Z,4.80
2019-01-31T06:19:01.993Z,5.40
2019-01-31T06:21:32.697Z,5.57
2019-01-31T06:24:04.886Z,5.10
2019-01-31T06:26:35.598Z,5.10
2019-01-31T06:29:06.349Z,5.80
2019-01-31T06:31:36.907Z,6.00
2019-01-31T06:34:08.973Z,7.03
2019-01-31T06:36:39.703Z,6.77
2019-01-31T06:39:10.448Z,4.87
2019-01-31T06:41:41.145Z,3.87
2019-01-31T06:44:11.786Z,5.23
2019-01-31T06:46:42.488Z,4.37
2019-01-31T06:49:13.153Z,4.40
2019-01-31T06:51:43.849Z,4.33
2019-01-31T06:54:14.572Z,5.03
2019-01-31T06:56:45.378Z,4.90
2019-01-31T06:59:16.081Z,5.77
2019-01-31T07:01:46.765Z,7.93
2019-01-31T07:04:17.420Z,8.00
2019-01-31T07:06:48.060Z,7.87
2019-01-31T07:09:18.726Z,9.10
2019-01-31T07:11:49.441Z,7.20
2019-01-31T07:14:20.093Z,6.90
2019-01-31T07:16:50.796Z,8.10
2019-01-31T07:19:21.461Z,9.77
2019-01-31T07:21:52.093Z,9.30
2019-01-31T07:24:22.756Z,7.90
2019-01-31T07:26:53.481Z,7.07
2019-01-31T07:29:24.112Z,6.40
2019-01-31T07:31:54.763Z,7.13
2019-01-31T07:34:25.440Z,7.57
2019-01-31T07:36:56.147Z,8.60
2019-01-31T07:39:26.839Z,8.27
2019-01-31T07:41:57.561Z,8.97
2019-01-31T07:44:28.206Z,8.40
2019-01-31T07:46:59.923Z,6.90
2019-01-31T07:49:30.545Z,5.87
2019-01-31T07:52:01.185Z,6.10
2019-01-31T07:54:31.865Z,6.17
2019-01-31T07:57:02.505Z,6.33
2019-01-31T07:59:33.214Z,5.70
2019-01-31T08:02:03.926Z,6.70
2019-01-31T08:04:34.615Z,6.80
2019-01-31T08:07:05.264Z,7.37
2019-01-31T08:09:35.855Z,6.67
2019-01-31T08:12:06.581Z,5.73
2019-01-31T08:14:37.201Z,5.70
2019-01-31T08:17:07.841Z,5.67
2019-01-31T08:19:38.457Z,7.20
2019-01-31T08:22:09.089Z,6.40
2019-01-31T08:24:39.746Z,6.53
2019-01-31T08:27:10.374Z,7.40
2019-01-31T08:29:41.085Z,7.60
2019-01-31T08:32:11.821Z,6.40
2019-01-31T08:34:42.518Z,5.33
2019-01-31T08:37:13.222Z,2.97
2019-01-31T08:39:43.842Z,3.20
2019-01-31T08:42:14.551Z,3.10
2019-01-31T08:44:45.173Z,2.90
2019-01-31T08:47:15.819Z,3.80
2019-01-31T08:49:46.440Z,3.57
2019-01-31T08:52:17.093Z,6.90
2019-01-31T08:54:47.646Z,6.20
2019-01-31T08:57:18.362Z,6.20
2019-01-31T08:59:49.945Z,4.70
2019-01-31T09:02:20.594Z,5.60
2019-01-31T09:04:51.213Z,3.53
2019-01-31T09:07:21.934Z,3.80
2019-01-31T09:09:52.577Z,4.33
2019-01-31T09:12:23.292Z,4.17
2019-01-31T09:14:54.165Z,4.37
2019-01-31T09:17:24.800Z,4.47
2019-01-31T09:19:55.486Z,5.20
2019-01-31T09:22:38.580Z,5.40
2019-01-31T09:25:41.369Z,5.23
2019-01-31T09:28:44.706Z,5.97
2019-01-31T09:31:59.118Z,4.13
2019-01-31T09:34:51.105Z,3.90
2019-01-31T09:38:07.306Z,3.27
2019-01-31T09:41:26.237Z,3.87
2019-01-31T09:44:28.701Z,4.93
2019-01-31T09:47:34.186Z,4.20
2019-01-31T09:50:34.553Z,4.03
2019-01-31T09:53:34.214Z,4.60
2019-01-31T09:56:28.889Z,4.33
2019-01-31T09:59:52.789Z,3.60
2019-01-31T10:03:06.524Z,3.80
2019-01-31T10:06:01.447Z,2.80
2019-01-31T10:08:49.969Z,3.00
2019-01-31T10:12:12.803Z,3.50
2019-01-31T10:14:58.355Z,5.63
2019-01-31T10:17:58.844Z,5.23
2019-01-31T10:21:07.642Z,4.93
2019-01-31T10:24:15.641Z,5.30
2019-01-31T10:27:23.389Z,4.33
2019-01-31T10:30:16.698Z,3.40
2019-01-31T10:33:34.701Z,2.50
2019-01-31T10:36:13.697Z,4.10
2019-01-31T10:39:18.641Z,3.90
2019-01-31T10:42:32.187Z,7.20
2019-01-31T10:45:39.680Z,2.23
2019-01-31T10:48:51.758Z,2.30
2019-01-31T10:52:19.326Z,1.83
2019-01-31T10:55:16.581Z,1.90
2019-01-31T10:58:22.943Z,1.80
2019-01-31T11:01:26.354Z,1.63
2019-01-31T11:04:23.203Z,1.90
2019-01-31T11:07:40.824Z,1.90
2019-01-31T11:10:32.572Z,1.90
2019-01-31T11:13:29.091Z,1.90
2019-01-31T11:16:41.376Z,1.60
2019-01-31T11:19:36.029Z,1.43
2019-01-31T11:22:36.177Z,1.30
2019-01-31T11:25:40.226Z,2.23
2019-01-31T11:28:36.958Z,1.60
2019-01-31T11:31:30.542Z,1.80
2019-01-31T11:34:32.689Z,2.40
2019-01-31T11:37:57.426Z,2.23
2019-01-31T11:40:58.693Z,4.07
2019-01-31T11:44:13.307Z,3.10
2019-01-31T11:47:15.089Z,2.57
2019-01-31T11:50:18.606Z,3.20
2019-01-31T11:53:18.001Z,1.80
2019-01-31T11:56:31.784Z,2.03
2019-01-31T11:59:06.004Z,2.27
2019-01-31T12:01:37.482Z,2.03
2019-01-31T12:04:19.758Z,2.20
2019-01-31T12:06:50.486Z,1.87
2019-01-31T12:09:22.128Z,1.87
2019-01-31T12:11:52.997Z,2.00
2019-01-31T12:14:23.699Z,2.30
2019-01-31T12:16:54.424Z,2.00
2019-01-31T12:19:25.110Z,1.80
2019-01-31T12:21:55.869Z,2.40
2019-01-31T12:24:26.481Z,2.20
2019-01-31T12:26:57.121Z,1.90
2019-01-31T12:29:27.734Z,1.73
2019-01-31T12:31:58.466Z,1.80
2019-01-31T12:34:29.084Z,2.23
2019-01-31T12:36:59.808Z,1.60
2019-01-31T12:39:30.506Z,2.00
2019-01-31T12:42:01.145Z,2.10
2019-01-31T12:44:31.836Z,1.50
2019-01-31T12:47:02.539Z,1.63
2019-01-31T12:49:33.081Z,1.90
2019-01-31T12:52:04.369Z,2.17
2019-01-31T12:54:35.025Z,1.60
2019-01-31T12:57:05.857Z,1.90
2019-01-31T12:59:36.537Z,1.40
2019-01-31T13:02:07.657Z,1.90
2019-01-31T13:04:38.277Z,1.27
2019-01-31T13:07:09.321Z,1.70
2019-01-31T13:09:40.029Z,1.60
2019-01-31T13:12:10.766Z,1.50
2019-01-31T13:14:41.415Z,1.57
2019-01-31T13:17:12.228Z,1.50
2019-01-31T13:19:42.909Z,1.57
2019-01-31T13:22:14.134Z,1.80
2019-01-31T13:24:44.742Z,1.30
2019-01-31T13:27:15.462Z,1.60
2019-01-31T13:29:46.163Z,1.20
2019-01-31T13:32:16.880Z,1.23
2019-01-31T13:34:47.502Z,1.40
2019-01-31T13:37:18.223Z,1.67
2019-01-31T13:39:48.925Z,1.50
2019-01-31T13:42:19.557Z,1.70
2019-01-31T13:44:50.268Z,1.57
2019-01-31T13:47:20.988Z,1.90
2019-01-31T13:49:51.677Z,1.33
2019-01-31T13:52:22.358Z,1.50
2019-01-31T13:54:53.045Z,1.67
2019-01-31T13:57:23.773Z,1.80
2019-01-31T13:59:54.561Z,1.30
2019-01-31T14:02:25.280Z,1.50
2019-01-31T14:04:55.906Z,1.53
2019-01-31T14:07:27.695Z,2.00
2019-01-31T14:09:58.462Z,1.50
2019-01-31T14:12:29.101Z,1.67
2019-01-31T14:15:00.753Z,1.60
2019-01-31T14:17:31.396Z,2.23
2019-01-31T14:20:02.109Z,1.47
2019-01-31T14:22:42.770Z,3.30
2019-01-31T14:25:05.961Z,1.90
2019-01-31T14:27:36.679Z,2.20
2019-01-31T14:30:12.554Z,4.70
2019-01-31T14:32:43.764Z,2.50
2019-01-31T14:35:14.455Z,8.37
2019-01-31T14:37:45.161Z,1.90
2019-01-31T14:40:16.085Z,1.40
2019-01-31T14:42:46.813Z,1.57
2019-01-31T14:45:17.540Z,1.90
2019-01-31T14:47:48.261Z,1.70
2019-01-31T14:50:21.977Z,1.53
2019-01-31T14:52:53.678Z,1.50
2019-01-31T14:55:24.362Z,1.80
2019-01-31T14:57:55.085Z,1.53
2019-01-31T15:00:27.786Z,1.43
2019-01-31T15:02:58.601Z,1.80
2019-01-31T15:05:29.494Z,2.10
2019-01-31T15:08:01.277Z,1.40
2019-01-31T15:10:31.983Z,1.90
2019-01-31T15:13:02.685Z,1.70
2019-01-31T15:15:33.396Z,1.63
2019-01-31T15:18:04.510Z,1.80
2019-01-31T15:20:38.404Z,2.33
2019-01-31T15:23:09.480Z,2.20
2019-01-31T15:25:40.198Z,6.20
2019-01-31T15:28:10.913Z,3.50
2019-01-31T15:30:41.593Z,2.90
2019-01-31T15:33:13.994Z,3.10
2019-01-31T15:35:44.714Z,2.50
2019-01-31T15:38:15.415Z,3.63
2019-01-31T15:40:48.175Z,3.53
2019-01-31T15:43:18.871Z,3.20
2019-01-31T15:45:49.509Z,3.97
2019-01-31T15:48:20.215Z,4.33
2019-01-31T15:50:50.837Z,2.83
2019-01-31T15:53:22.237Z,3.10
2019-01-31T15:55:53.008Z,2.77
2019-01-31T15:58:23.771Z,2.73
2019-01-31T16:00:56.537Z,2.80
2019-01-31T16:03:27.731Z,2.70
2019-01-31T16:05:58.345Z,2.53
2019-01-31T16:08:29.096Z,2.90
2019-01-31T16:10:59.741Z,2.80
2019-01-31T16:13:30.445Z,3.97
2019-01-31T16:16:01.174Z,3.53
2019-01-31T16:18:32.756Z,4.07
2019-01-31T16:21:03.465Z,4.27
2019-01-31T16:23:34.156Z,4.40
2019-01-31T16:26:05.070Z,3.70
2019-01-31T16:28:35.761Z,3.50
2019-01-31T16:31:06.337Z,3.13
2019-01-31T16:33:36.951Z,3.57
2019-01-31T16:36:07.686Z,4.70
2019-01-31T16:38:38.314Z,3.60
2019-01-31T16:41:09.029Z,3.43
2019-01-31T16:43:39.700Z,3.80
2019-01-31T16:46:10.356Z,3.97
2019-01-31T16:48:41.054Z,3.97
2019-01-31T16:51:11.736Z,3.00
2019-01-31T16:53:42.655Z,6.83
2019-01-31T16:56:13.402Z,4.23
2019-01-31T16:58:45.066Z,5.40
2019-01-31T17:01:16.218Z,6.20
2019-01-31T17:03:47.000Z,8.47
2019-01-31T17:06:17.705Z,9.10
2019-01-31T17:08:48.344Z,6.33
2019-01-31T17:11:19.103Z,4.80
2019-01-31T17:13:49.765Z,4.03
2019-01-31T17:16:21.477Z,6.20
2019-01-31T17:18:54.794Z,11.20
2019-01-31T17:21:24.532Z,13.23
2019-01-31T17:23:55.183Z,8.03
2019-01-31T17:26:26.961Z,6.83
2019-01-31T17:28:57.581Z,6.90
2019-01-31T17:31:28.232Z,8.63
2019-01-31T17:33:58.929Z,6.67
2019-01-31T17:36:29.594Z,5.87
2019-01-31T17:39:00.210Z,4.70
2019-01-31T17:41:30.926Z,4.30
2019-01-31T17:44:01.623Z,8.30
2019-01-31T17:46:33.323Z,8.33
2019-01-31T17:49:04.041Z,11.17
2019-01-31T17:51:34.765Z,12.43
2019-01-31T17:54:05.773Z,8.03
2019-01-31T17:56:36.408Z,7.53
2019-01-31T17:59:06.453Z,7.30
2019-01-31T18:01:36.901Z,7.53
2019-01-31T18:04:07.589Z,5.57
2019-01-31T18:06:38.222Z,7.50
2019-01-31T18:09:10.142Z,4.90
2019-01-31T18:11:40.861Z,4.87
2019-01-31T18:14:11.491Z,4.30
2019-01-31T18:16:42.212Z,4.20
2019-01-31T18:19:12.825Z,6.97
2019-01-31T18:21:43.466Z,7.90
2019-01-31T18:24:14.165Z,6.23
2019-01-31T18:26:44.999Z,10.80
2019-01-31T18:29:15.711Z,10.80
2019-01-31T18:31:46.436Z,9.67
2019-01-31T18:34:17.070Z,11.83
2019-01-31T18:36:48.870Z,14.20
2019-01-31T18:39:19.580Z,5.80
2019-01-31T18:41:50.221Z,4.10
2019-01-31T18:44:20.902Z,4.70
2019-01-31T18:46:51.561Z,6.70
2019-01-31T18:49:22.267Z,7.67
2019-01-31T18:51:52.989Z,6.40
2019-01-31T18:54:23.619Z,6.27
2019-01-31T18:56:54.374Z,6.23
2019-01-31T18:59:25.096Z,7.10
2019-01-31T19:01:55.902Z,5.60
2019-01-31T19:04:26.505Z,5.43
2019-01-31T19:06:57.228Z,5.63
2019-01-31T19:09:27.869Z,5.90
2019-01-31T19:11:58.574Z,5.77
2019-01-31T19:14:29.225Z,5.97
2019-01-31T19:16:59.905Z,6.50
2019-01-31T19:19:30.469Z,6.43
2019-01-31T19:22:01.113Z,7.27
2019-01-31T19:24:31.786Z,7.00
2019-01-31T19:27:02.495Z,7.60
2019-01-31T19:29:33.422Z,7.67
2019-01-31T19:32:04.119Z,7.87
2019-01-31T19:34:34.855Z,9.90
2019-01-31T19:37:05.669Z,8.53
2019-01-31T19:39:36.390Z,6.23
2019-01-31T19:42:07.036Z,7.40
2019-01-31T19:44:37.790Z,6.70
2019-01-31T19:47:08.445Z,7.57
2019-01-31T19:49:39.120Z,6.20
2019-01-31T19:52:09.937Z,19.37
2019-01-31T19:54:40.681Z,14.43
2019-01-31T19:57:11.448Z,10.60
2019-01-31T19:59:42.200Z,7.70
2019-01-31T20:02:15.840Z,7.80
2019-01-31T20:04:45.312Z,6.77
2019-01-31T20:07:16.055Z,6.33
2019-01-31T20:09:46.800Z,6.80
2019-01-31T20:12:18.501Z,6.90
2019-01-31T20:14:49.237Z,7.07
2019-01-31T20:17:19.937Z,7.00
2019-01-31T20:19:51.734Z,6.97
2019-01-31T20:22:22.533Z,7.17
2019-01-31T20:24:53.257Z,8.60
2019-01-31T20:27:23.908Z,8.27
2019-01-31T20:29:54.629Z,8.40
2019-01-31T20:32:25.385Z,7.97
2019-01-31T20:34:56.117Z,9.00
2019-01-31T20:37:26.845Z,9.50
2019-01-31T20:39:57.628Z,7.60
2019-01-31T20:42:28.345Z,6.73
2019-01-31T20:44:59.105Z,5.93
2019-01-31T20:47:29.808Z,6.10
2019-01-31T20:50:00.502Z,6.63
2019-01-31T20:52:31.211Z,13.67
2019-01-31T20:55:01.959Z,13.53
2019-01-31T20:57:32.886Z,39.17
2019-01-31T21:00:05.404Z,31.63
2019-01-31T21:02:36.061Z,7.90
2019-01-31T21:05:07.972Z,8.70
2019-01-31T21:07:38.788Z,6.70
2019-01-31T21:10:10.085Z,5.63
2019-01-31T21:12:40.848Z,6.00
2019-01-31T21:15:14.708Z,5.23
2019-01-31T21:17:45.464Z,6.70
2019-01-31T21:20:17.297Z,4.40
2019-01-31T21:22:48.202Z,5.00
2019-01-31T21:25:20.030Z,5.20
2019-01-31T21:27:50.685Z,7.80
2019-01-31T21:30:29.780Z,9.93
2019-01-31T21:33:00.504Z,7.50
2019-01-31T21:35:31.630Z,9.33
2019-01-31T21:38:02.378Z,8.53
2019-01-31T21:40:34.883Z,7.57
2019-01-31T21:43:06.573Z,7.80
2019-01-31T21:45:37.666Z,9.40
2019-01-31T21:48:09.877Z,8.10
2019-01-31T21:50:41.577Z,6.70
2019-01-31T21:53:12.211Z,7.37
2019-01-31T21:55:42.849Z,7.23
2019-01-31T21:58:13.604Z,9.30
2019-01-31T22:00:44.254Z,5.00
2019-01-31T22:03:14.790Z,4.17
2019-01-31T22:05:45.509Z,3.87
2019-01-31T22:08:16.129Z,4.00
2019-01-31T22:10:46.784Z,3.73
2019-01-31T22:13:17.405Z,3.60
2019-01-31T22:15:48.117Z,3.00
2019-01-31T22:18:18.808Z,4.57
2019-01-31T22:20:49.501Z,4.27
2019-01-31T22:23:20.133Z,5.00
2019-01-31T22:25:50.849Z,5.97
2019-01-31T22:28:21.532Z,6.17
2019-01-31T22:30:52.166Z,5.67
2019-01-31T22:33:22.782Z,4.10
2019-01-31T22:35:53.506Z,5.10
2019-01-31T22:38:24.201Z,4.20
2019-01-31T22:40:54.842Z,4.17
2019-01-31T22:43:25.460Z,4.30
2019-01-31T22:45:56.089Z,4.50
2019-01-31T22:48:26.626Z,5.03
2019-01-31T22:50:57.333Z,4.40
2019-01-31T22:53:27.865Z,4.20
2019-01-31T22:55:58.489Z,4.20
2019-01-31T22:58:29.089Z,4.40
2019-01-31T23:01:44.557Z,4.90
2019-01-31T23:04:15.237Z,4.20
2019-01-31T23:06:45.950Z,3.60
2019-01-31T23:09:16.741Z,3.17
2019-01-31T23:11:47.477Z,3.27
2019-01-31T23:14:18.106Z,3.37
2019-01-31T23:16:48.816Z,3.43
2019-01-31T23:19:19.344Z,3.73
2019-01-31T23:21:49.973Z,4.30
2019-01-31T23:24:20.592Z,3.77
2019-01-31T23:26:51.213Z,3.93
2019-01-31T23:29:21.828Z,3.73
2019-01-31T23:31:52.479Z,3.43
2019-01-31T23:34:23.166Z,3.67
2019-01-31T23:36:53.748Z,3.90
2019-01-31T23:39:24.428Z,3.43
2019-01-31T23:41:55.056Z,4.03
2019-01-31T23:44:25.678Z,3.70
2019-01-31T23:46:56.390Z,3.57
2019-01-31T23:49:27.073Z,4.17
2019-01-31T23:51:57.705Z,3.90
2019-01-31T23:54:28.389Z,4.43
2019-01-31T23:56:59.021Z,3.60
2019-01-31T23:59:29.645Z,4.77
